createdAt,value
2023-04-01T18:00:14.464Z,63620.38
2023-04-01T18:01:27.128Z,63617.34
2023-04-01T18:03:06.830Z,63614.35
2023-04-01T18:04:12.784Z,63620.27
2023-04-01T18:05:38.352Z,63611.17
2023-04-01T18:06:44.224Z,63614.59
2023-04-01T18:09:08.821Z,63623.13
2023-04-01T18:10:20.744Z,63613.92
2023-04-01T18:11:52.506Z,63612.94
2023-04-01T18:13:35.306Z,63612.40
2023-04-01T18:14:56.358Z,63615.44
2023-04-01T18:18:09.830Z,63608.98
2023-04-01T18:19:21.542Z,63604.89
2023-04-01T18:20:53.015Z,63610.83
2023-04-01T18:21:58.801Z,63600.18
2023-04-01T18:23:04.536Z,63599.23
2023-04-01T18:24:38.070Z,63596.35
2023-04-01T18:25:47.306Z,63599.52
2023-04-01T18:27:22.435Z,63601.85
2023-04-01T18:28:40.162Z,63602.68
2023-04-01T18:29:50.561Z,63597.33
2023-04-01T18:31:03.269Z,63590.54
2023-04-01T18:33:44.902Z,63601.41
2023-04-01T18:34:50.671Z,63597.33
2023-04-01T18:36:05.249Z,63596.35
2023-04-01T18:37:34.742Z,63591.95
2023-04-01T18:40:18.153Z,63598.98
2023-04-01T18:41:43.225Z,63596.35
2023-04-01T18:43:19.587Z,63591.95
2023-04-01T18:44:48.049Z,63596.35
2023-04-01T18:46:02.990Z,63602.04
2023-04-01T18:47:29.886Z,63590.87
2023-04-01T18:48:54.665Z,63593.60
2023-04-01T18:50:17.369Z,63594.70
2023-04-01T18:52:45.993Z,63595.25
2023-04-01T18:53:55.398Z,63588.66
2023-04-01T18:55:07.217Z,63594.58
2023-04-01T18:56:13.036Z,63587.58
2023-04-01T18:57:16.946Z,63591.85
2023-04-01T18:58:30.123Z,63587.58
2023-04-01T18:59:41.546Z,63583.62
2023-04-01T19:00:47.431Z,63579.45
2023-04-01T19:02:19.005Z,63585.27
2023-04-01T19:03:36.955Z,63582.87
2023-04-01T19:04:43.409Z,63586.48
2023-04-01T19:05:48.797Z,63590.75
2023-04-01T19:06:59.507Z,63586.04
2023-04-01T19:08:29.062Z,63583.62
2023-04-01T19:09:46.498Z,63583.18
2023-04-01T19:11:04.690Z,63581.66
2023-04-01T19:12:32.163Z,63579.89
2023-04-01T19:13:59.164Z,63584.83
2023-04-01T19:15:14.944Z,63586.91
2023-04-01T19:16:24.213Z,63583.18
2023-04-01T19:17:40.891Z,63576.72
2023-04-01T19:19:08.970Z,63586.48
2023-04-01T19:20:25.011Z,63583.73
2023-04-01T19:21:30.895Z,63584.16
2023-04-01T19:22:44.873Z,63579.89
2023-04-01T19:24:13.464Z,63577.83
2023-04-01T19:25:46.309Z,63583.62
2023-04-01T19:27:01.515Z,63578.81
2023-04-01T19:28:11.488Z,63579.35
2023-04-01T19:29:51.416Z,63583.18
2023-04-01T19:30:57.412Z,63580.32
2023-04-01T19:32:26.449Z,63577.27
2023-04-01T19:33:35.026Z,63582.52
2023-04-01T19:34:49.609Z,63570.99
2023-04-01T19:36:04.690Z,63578.55
2023-04-01T19:37:28.189Z,63572.77
2023-04-01T19:38:40.221Z,63574.29
2023-04-01T19:40:13.846Z,63562.35
2023-04-01T19:43:19.602Z,63563.45
2023-04-01T19:44:37.064Z,63562.12
2023-04-01T19:45:45.277Z,63558.93
2023-04-01T19:46:54.073Z,63557.95
2023-04-01T19:48:22.845Z,63557.18
2023-04-01T19:49:31.519Z,63552.61
2023-04-01T19:50:49.572Z,63557.29
2023-04-01T19:52:03.904Z,63551.81
2023-04-01T19:54:49.677Z,63552.91
2023-04-01T19:56:04.427Z,63549.62
2023-04-01T19:57:26.986Z,63547.97
2023-04-01T19:58:41.770Z,63537.25
2023-04-01T19:59:59.188Z,63537.80
2023-04-01T20:01:04.640Z,63546.33
2023-04-01T20:02:13.491Z,63539.98
2023-04-01T20:03:19.352Z,63540.18
2023-04-01T20:04:31.006Z,63536.46
2023-04-01T20:05:42.895Z,63539.75
2023-04-01T20:07:07.238Z,63533.29
2023-04-01T20:08:32.761Z,63538.23
2023-04-01T20:09:51.052Z,63530.55
2023-04-01T20:10:59.919Z,63535.37
2023-04-01T20:12:17.927Z,63538.00
2023-04-01T20:13:29.978Z,63535.48
2023-04-01T20:14:43.065Z,63535.37
2023-04-01T20:15:48.977Z,63530.98
2023-04-01T20:17:00.867Z,63528.79
2023-04-01T20:18:06.595Z,63526.17
2023-04-01T20:19:11.547Z,63531.11
2023-04-01T20:20:21.861Z,63528.36
2023-04-01T20:21:45.645Z,63534.71
2023-04-01T20:23:12.931Z,63529.46
2023-04-01T20:25:50.251Z,63532.09
2023-04-01T20:27:14.569Z,63526.61
2023-04-01T20:28:23.627Z,63523.98
2023-04-01T20:29:29.338Z,63520.26
2023-04-01T20:30:47.475Z,63526.04
2023-04-01T20:32:00.005Z,63522.21
2023-04-01T20:33:17.781Z,63521.11
2023-04-01T20:34:23.461Z,63518.49
2023-04-01T20:35:38.787Z,63525.50
2023-04-01T20:37:04.437Z,63523.73
2023-04-01T20:38:13.363Z,63518.07
2023-04-01T20:39:48.239Z,63521.67
2023-04-01T20:40:53.819Z,63522.21
2023-04-01T20:42:14.436Z,63513.68
2023-04-01T20:43:53.898Z,63513.45
2023-04-01T20:46:47.000Z,63514.12
2023-04-01T20:48:19.923Z,63513.01
2023-04-01T20:49:23.778Z,63518.38
2023-04-01T20:50:36.065Z,63510.39
2023-04-01T20:51:42.782Z,63519.46
2023-04-01T20:53:06.704Z,63520.13
2023-04-01T20:54:29.766Z,63521.11
2023-04-01T20:55:52.618Z,63518.92
2023-04-01T20:57:25.540Z,63517.82
2023-04-01T20:58:34.232Z,63524.40
2023-04-01T20:59:40.114Z,63523.19
2023-04-01T21:00:51.535Z,63517.28
2023-04-01T21:02:01.410Z,63511.91
2023-04-01T21:03:12.712Z,63513.99
2023-04-01T21:04:33.209Z,63516.17
2023-04-01T21:06:14.037Z,63516.74
2023-04-01T21:07:46.418Z,63511.50
2023-04-01T21:09:01.358Z,63515.63
2023-04-01T21:10:10.279Z,63511.91
2023-04-01T21:11:36.233Z,63506.56
2023-04-01T21:12:42.430Z,63513.55
2023-04-01T21:14:08.821Z,63509.05
2023-04-01T21:15:17.327Z,63506.87
2023-04-01T21:16:38.571Z,63506.43
2023-04-01T21:17:59.200Z,63502.73
2023-04-01T21:19:10.703Z,63511.91
2023-04-01T21:20:16.591Z,63512.34
2023-04-01T21:21:34.696Z,63509.29
2023-04-01T21:22:58.641Z,63511.26
2023-04-01T21:24:13.356Z,63509.05
2023-04-01T21:25:29.629Z,63510.70
2023-04-01T21:26:36.323Z,63511.26
2023-04-01T21:27:48.323Z,63510.93
2023-04-01T21:29:11.378Z,63509.29
2023-04-01T21:30:28.860Z,63511.80
2023-04-01T21:31:51.550Z,63515.63
2023-04-01T21:33:14.027Z,63506.13
2023-04-01T21:34:39.736Z,63505.35
2023-04-01T21:36:02.020Z,63507.97
2023-04-01T21:37:19.641Z,63500.96
2023-04-01T21:38:59.354Z,63509.48
2023-04-01T21:40:38.961Z,63500.18
2023-04-01T21:41:47.609Z,63504.12
2023-04-01T21:43:12.721Z,63501.93
2023-04-01T21:44:35.501Z,63502.47
2023-04-01T21:45:53.345Z,63510.03
2023-04-01T21:47:20.618Z,63494.61
2023-04-01T21:48:58.041Z,63494.81
2023-04-01T21:50:24.999Z,63495.91
2023-04-01T21:51:59.980Z,63495.05
2023-04-01T21:54:36.787Z,63489.57
2023-04-01T21:56:04.053Z,63491.65
2023-04-01T21:57:25.178Z,63498.54
2023-04-01T21:58:54.580Z,63492.86
2023-04-01T22:00:09.276Z,63490.00
2023-04-01T22:01:33.084Z,63487.13
2023-04-01T22:02:50.720Z,63486.72
2023-04-01T22:04:11.919Z,63487.13
2023-04-01T22:05:23.608Z,63487.69
2023-04-01T22:06:40.909Z,63487.56
2023-04-01T22:09:27.603Z,63479.16
2023-04-01T22:10:33.608Z,63480.57
2023-04-01T22:11:55.226Z,63483.30
2023-04-01T22:13:22.704Z,63472.59
2023-04-01T22:14:28.829Z,63480.57
2023-04-01T22:16:09.303Z,63478.37
2023-04-01T22:17:33.478Z,63477.29
2023-04-01T22:18:45.630Z,63482.76
2023-04-01T22:19:57.240Z,63477.39
2023-04-01T22:21:12.238Z,63476.85
2023-04-01T22:22:21.287Z,63472.89
2023-04-01T22:23:41.799Z,63478.93
2023-04-01T22:24:53.711Z,63477.29
2023-04-01T22:26:02.072Z,63472.05
2023-04-01T22:27:21.130Z,63469.84
2023-04-01T22:28:30.047Z,63476.61
2023-04-01T22:29:35.936Z,63473.99
2023-04-01T22:30:54.489Z,63467.11
2023-04-01T22:33:22.360Z,63479.47
2023-04-01T22:34:47.862Z,63472.89
2023-04-01T22:35:59.579Z,63476.72
2023-04-01T22:38:37.294Z,63478.37
2023-04-01T22:41:29.020Z,63473.86
2023-04-01T22:42:47.147Z,63461.95
2023-04-01T22:43:51.480Z,63467.42
2023-04-01T22:45:20.471Z,63462.48
2023-04-01T22:46:32.388Z,63457.25
2023-04-01T22:47:45.022Z,63463.59
2023-04-01T22:48:56.906Z,63464.97
2023-04-01T22:50:05.636Z,63453.29
2023-04-01T22:51:17.506Z,63454.39
2023-04-01T22:52:44.212Z,63459.74
2023-04-01T22:56:37.008Z,63464.67
2023-04-01T22:57:45.703Z,63458.22
2023-04-01T22:58:55.270Z,63459.87
2023-04-01T23:00:16.360Z,63460.97
2023-04-01T23:01:25.263Z,63458.22
2023-04-01T23:02:34.165Z,63456.47
2023-04-01T23:03:40.080Z,63457.12
2023-04-01T23:04:45.139Z,63463.46
2023-04-01T23:05:56.837Z,63465.64
2023-04-01T23:07:02.961Z,63460.41
2023-04-01T23:08:28.684Z,63458.22
2023-04-01T23:09:34.074Z,63459.20
2023-04-01T23:10:49.069Z,63453.72
2023-04-01T23:11:58.265Z,63462.48
2023-04-01T23:13:03.187Z,63453.96
2023-04-01T23:14:17.942Z,63465.10
2023-04-01T23:15:21.478Z,63459.74
2023-04-01T23:16:27.470Z,63463.02
2023-04-01T23:17:52.242Z,63462.48
2023-04-01T23:19:20.792Z,63463.59
2023-04-01T23:20:38.650Z,63465.23
2023-04-01T23:21:53.428Z,63461.08
2023-04-01T23:23:13.907Z,63456.04
2023-04-01T23:24:31.473Z,63463.02
2023-04-01T23:25:39.901Z,63460.41
2023-04-01T23:26:45.732Z,63461.95
2023-04-01T23:27:54.307Z,63455.48
2023-04-01T23:28:58.755Z,63464.43
2023-04-01T23:30:03.284Z,63461.38
2023-04-01T23:32:26.353Z,63464.67
2023-04-01T23:33:30.804Z,63456.47
2023-04-01T23:34:35.897Z,63453.72
2023-04-01T23:35:51.022Z,63454.50
2023-04-01T23:37:02.651Z,63454.26
2023-04-01T23:38:05.339Z,63453.05
2023-04-01T23:39:22.601Z,63451.54
2023-04-01T23:40:26.403Z,63449.46
2023-04-01T23:41:32.830Z,63450.98
2023-04-01T23:42:41.061Z,63449.03
2023-04-01T23:43:45.409Z,63458.65
2023-04-01T23:44:53.567Z,63454.93
2023-04-01T23:45:56.408Z,63458.65
2023-04-01T23:47:01.185Z,63466.08
2023-04-01T23:48:03.489Z,63454.93
2023-04-01T23:49:09.722Z,63453.18
2023-04-01T23:50:20.992Z,63445.63
2023-04-01T23:51:29.815Z,63455.67
2023-04-01T23:52:38.409Z,63455.24
2023-04-01T23:53:44.167Z,63456.58
2023-04-01T23:54:52.634Z,63456.88
2023-04-01T23:55:55.667Z,63455.37
2023-04-01T23:56:58.706Z,63450.56
2023-04-01T23:58:07.165Z,63448.92
2023-04-01T23:59:18.868Z,63455.37
